Time;durP1;ratioP1;P1;durP2;ratioP2;P2;SDS_P1;SDS_P2;PMS_P1;PMS_P2;Temp;Humidity;BMP_temperature;BMP_pressure;BME280_temperature;BME280_humidity;BME280_pressure;Samples;Min_cycle;Max_cycle;Signal;HPM_P1;HPM_P2
2022/03/19 00:02:18;;;;;;;52.00;21.98;;;15.10;58.90;;;;;;6126013;28;20031;-67
2022/03/19 00:05:19;;;;;;;57.15;20.65;;;15.10;58.90;;;;;;6126069;28;20043;-67
2022/03/19 00:08:19;;;;;;;57.35;21.95;;;15.10;58.90;;;;;;6121812;28;20111;-67
2022/03/19 00:11:23;;;;;;;52.63;21.67;;;15.00;58.80;;;;;;6125907;28;20032;-67
2022/03/19 00:14:24;;;;;;;59.80;22.25;;;15.00;58.90;;;;;;6125921;28;20666;-67
2022/03/19 00:17:25;;;;;;;51.17;20.98;;;15.00;58.90;;;;;;6126659;28;20119;-67
2022/03/19 00:20:27;;;;;;;59.97;23.00;;;15.00;58.90;;;;;;6121479;28;20040;-67
2022/03/19 00:23:28;;;;;;;55.28;22.25;;;14.90;58.90;;;;;;6119622;28;20054;-67
2022/03/19 00:26:30;;;;;;;58.10;22.98;;;14.90;59.10;;;;;;6127166;28;20036;-67
2022/03/19 00:29:31;;;;;;;62.78;23.80;;;14.80;59.10;;;;;;6121282;28;20032;-67
2022/03/19 00:32:31;;;;;;;58.55;22.20;;;14.80;59.20;;;;;;6127509;28;20050;-66
2022/03/19 00:35:33;;;;;;;55.20;22.63;;;14.70;59.30;;;;;;6125566;28;20028;-66
2022/03/19 00:38:33;;;;;;;60.38;25.08;;;14.70;59.20;;;;;;6127570;28;20036;-67
2022/03/19 00:41:34;;;;;;;54.28;23.05;;;14.70;59.20;;;;;;6127528;28;20466;-67
2022/03/19 00:44:35;;;;;;;62.45;22.65;;;14.80;59.20;;;;;;6127634;28;20078;-66
2022/03/19 00:47:36;;;;;;;87.32;22.98;;;14.80;59.20;;;;;;6126241;28;20066;-66
2022/03/19 00:50:38;;;;;;;57.33;23.15;;;14.80;59.20;;;;;;6127317;28;20119;-67
2022/03/19 00:53:39;;;;;;;56.35;23.33;;;14.80;59.20;;;;;;6125243;28;20040;-67
2022/03/19 00:56:42;;;;;;;58.30;22.13;;;14.90;59.30;;;;;;6127452;28;20047;-67
2022/03/19 00:59:43;;;;;;;60.03;22.20;;;14.90;59.20;;;;;;6124154;28;20047;-67
2022/03/19 01:02:44;;;;;;;57.70;21.52;;;14.90;59.20;;;;;;6119556;28;20373;-67
2022/03/19 01:05:45;;;;;;;60.25;23.17;;;14.90;59.20;;;;;;6125347;28;20039;-67
2022/03/19 01:08:46;;;;;;;50.35;22.23;;;14.90;59.10;;;;;;6126252;28;20047;-67
2022/03/19 01:12:06;;;;;;;55.10;22.80;;;14.90;59.10;;;;;;6125833;28;20464;-67
2022/03/19 01:15:09;;;;;;;60.95;24.02;;;15.00;59.00;;;;;;6124012;28;20488;-67
2022/03/19 01:18:09;;;;;;;62.33;24.00;;;14.90;58.90;;;;;;6108522;28;20394;-68
2022/03/19 01:21:10;;;;;;;56.15;22.77;;;14.90;58.90;;;;;;6124656;28;20051;-68
2022/03/19 01:24:11;;;;;;;62.53;23.77;;;15.00;58.90;;;;;;6125250;28;20039;-68
2022/03/19 01:27:12;;;;;;;61.10;23.73;;;15.00;58.80;;;;;;6125729;28;20405;-67
2022/03/19 01:30:16;;;;;;;68.03;24.20;;;15.00;58.70;;;;;;6108791;28;20046;-67
2022/03/19 01:33:17;;;;;;;50.03;21.85;;;15.00;58.70;;;;;;6125523;28;20337;-67
2022/03/19 01:36:18;;;;;;;52.22;21.80;;;15.00;58.70;;;;;;6125551;28;20039;-67
2022/03/19 01:39:19;;;;;;;61.10;24.55;;;14.90;58.60;;;;;;6123820;28;20063;-67
2022/03/19 01:42:35;;;;;;;55.78;23.40;;;15.00;58.60;;;;;;6125395;28;20390;-67
2022/03/19 01:45:36;;;;;;;67.38;23.27;;;14.90;58.70;;;;;;6125407;28;20440;-67
2022/03/19 01:48:37;;;;;;;54.92;22.95;;;14.90;58.60;;;;;;6124424;28;20094;-67
2022/03/19 01:51:38;;;;;;;55.95;22.90;;;14.90;58.70;;;;;;6125192;28;20095;-67
2022/03/19 01:54:44;;;;;;;51.67;22.05;;;15.00;58.70;;;;;;6125746;28;20460;-67
2022/03/19 01:57:46;;;;;;;60.50;24.05;;;14.90;58.60;;;;;;6124111;28;20079;-67
2022/03/19 02:00:47;;;;;;;58.10;23.17;;;14.90;58.60;;;;;;6125615;28;20469;-67
2022/03/19 02:03:48;;;;;;;51.35;22.13;;;14.90;58.80;;;;;;6126952;28;20115;-67
2022/03/19 02:06:50;;;;;;;58.33;22.23;;;14.80;58.70;;;;;;6128716;28;20031;-67
2022/03/19 02:09:51;;;;;;;73.38;24.45;;;14.80;58.90;;;;;;6140716;28;20520;-67
2022/03/19 02:12:53;;;;;;;56.22;22.98;;;14.80;58.90;;;;;;6122673;28;20035;-67
2022/03/19 02:15:54;;;;;;;54.00;23.67;;;14.80;58.90;;;;;;6126301;28;20067;-67
2022/03/19 02:18:57;;;;;;;61.08;23.58;;;14.80;58.80;;;;;;6129180;28;20442;-67
2022/03/19 02:21:58;;;;;;;54.70;22.98;;;14.90;58.80;;;;;;6129639;28;20036;-67
2022/03/19 02:28:19;;;;;;;59.90;23.20;;;14.90;58.80;;;;;;6127699;28;20127;-67
2022/03/19 02:31:20;;;;;;;58.42;23.13;;;14.90;58.70;;;;;;6129489;28;20040;-67
2022/03/19 02:34:21;;;;;;;66.55;22.17;;;14.90;58.60;;;;;;6128891;28;20046;-67
2022/03/19 02:37:22;;;;;;;56.50;22.80;;;14.80;58.60;;;;;;6127990;28;20124;-68
2022/03/19 02:40:23;;;;;;;57.25;22.58;;;14.80;58.60;;;;;;6127485;28;20028;-67
2022/03/19 02:43:24;;;;;;;60.85;22.55;;;14.80;58.60;;;;;;6128054;28;20481;-67
2022/03/19 02:46:42;;;;;;;51.47;23.00;;;14.80;58.60;;;;;;6128758;28;20047;-67
2022/03/19 02:49:43;;;;;;;50.55;22.70;;;14.70;58.50;;;;;;6136704;28;20430;-67
2022/03/19 02:52:44;;;;;;;58.40;22.13;;;14.80;58.50;;;;;;6127416;28;20042;-67
2022/03/19 02:55:46;;;;;;;58.75;23.83;;;14.80;58.50;;;;;;6127833;28;20039;-67
2022/03/19 02:58:47;;;;;;;53.72;22.83;;;14.80;58.40;;;;;;6126406;28;20035;-67
2022/03/19 03:01:52;;;;;;;56.42;22.63;;;14.80;58.40;;;;;;6126085;28;20028;-67
2022/03/19 03:04:53;;;;;;;56.58;21.60;;;14.80;58.30;;;;;;6124138;28;20042;-67
2022/03/19 03:07:53;;;;;;;54.47;23.67;;;14.80;58.20;;;;;;6125221;28;20040;-67
2022/03/19 03:10:54;;;;;;;54.40;23.05;;;14.80;58.10;;;;;;6125743;28;20036;-67
2022/03/19 03:13:55;;;;;;;54.55;22.65;;;14.80;58.10;;;;;;6126379;28;20039;-67
2022/03/19 03:17:00;;;;;;;58.50;22.08;;;14.90;58.00;;;;;;6126645;28;20465;-67
2022/03/19 03:20:03;;;;;;;56.67;23.17;;;14.80;57.90;;;;;;6125489;28;20481;-67
2022/03/19 03:23:04;;;;;;;55.55;21.67;;;14.90;57.90;;;;;;6127353;28;20195;-67
2022/03/19 03:26:05;;;;;;;54.72;23.48;;;14.90;57.90;;;;;;6124787;28;20077;-67
2022/03/19 03:29:07;;;;;;;59.50;23.70;;;14.90;57.80;;;;;;6126500;28;20042;-67
2022/03/19 03:32:10;;;;;;;53.55;22.10;;;14.90;57.90;;;;;;6126310;28;20476;-67
2022/03/19 03:35:10;;;;;;;54.70;21.65;;;14.80;57.80;;;;;;6127385;28;20091;-67
2022/03/19 03:38:11;;;;;;;60.05;22.95;;;14.80;57.80;;;;;;6099612;28;20043;-67
2022/03/19 03:41:13;;;;;;;59.30;23.35;;;14.80;57.90;;;;;;6125991;28;20058;-67
2022/03/19 03:44:13;;;;;;;66.15;24.05;;;14.80;57.90;;;;;;6126480;28;20039;-67
2022/03/19 03:47:14;;;;;;;61.63;22.83;;;14.80;57.90;;;;;;6126851;28;20073;-67
2022/03/19 03:50:16;;;;;;;56.80;21.95;;;14.80;57.80;;;;;;6124991;28;20046;-67
2022/03/19 03:53:17;;;;;;;45.58;19.00;;;14.70;57.80;;;;;;6125210;28;20063;-67
2022/03/19 03:56:18;;;;;;;40.13;17.73;;;14.70;57.80;;;;;;6120147;28;20039;-67
2022/03/19 03:59:19;;;;;;;49.42;16.00;;;14.70;57.80;;;;;;6122166;28;20040;-66
2022/03/19 04:02:20;;;;;;;34.80;14.00;;;14.60;57.70;;;;;;6104731;28;20114;-67
2022/03/19 04:05:21;;;;;;;45.80;16.20;;;14.60;57.70;;;;;;6124945;28;20182;-68
2022/03/19 04:08:22;;;;;;;37.72;15.93;;;14.50;57.70;;;;;;6123599;28;20098;-67
2022/03/19 04:11:23;;;;;;;37.50;15.65;;;14.40;57.70;;;;;;6125408;28;20046;-67
2022/03/19 04:14:23;;;;;;;36.75;15.15;;;14.30;57.80;;;;;;6124884;28;20329;-67
2022/03/19 04:17:24;;;;;;;44.00;14.52;;;14.30;57.90;;;;;;6126655;28;20036;-67
2022/03/19 04:20:25;;;;;;;41.50;14.70;;;14.10;58.20;;;;;;6125049;28;20449;-67
2022/03/19 04:23:26;;;;;;;53.97;16.63;;;14.10;58.00;;;;;;6118712;28;20040;-67
2022/03/19 04:26:27;;;;;;;37.35;14.23;;;14.00;58.10;;;;;;6125140;28;20039;-67
2022/03/19 04:29:28;;;;;;;35.10;14.73;;;14.00;58.20;;;;;;6124188;28;20042;-67
2022/03/19 04:32:29;;;;;;;42.00;15.93;;;14.00;58.20;;;;;;6122993;28;20063;-67
2022/03/19 04:38:51;;;;;;;51.08;13.80;;;13.90;58.40;;;;;;6122956;28;20131;-71
2022/03/19 04:41:52;;;;;;;37.90;14.02;;;13.90;58.50;;;;;;6125742;28;20115;-67
2022/03/19 04:44:55;;;;;;;43.97;15.65;;;13.90;58.50;;;;;;6123876;28;20376;-66
2022/03/19 04:47:56;;;;;;;35.72;14.52;;;13.80;58.50;;;;;;6125229;28;20057;-67
2022/03/19 04:50:57;;;;;;;46.67;17.50;;;13.80;58.60;;;;;;6125287;28;20167;-67
2022/03/19 04:53:59;;;;;;;40.83;14.25;;;13.80;58.60;;;;;;6124333;28;20024;-67
2022/03/19 04:57:02;;;;;;;42.33;15.95;;;13.90;58.60;;;;;;6124004;28;20119;-67
2022/03/19 05:00:05;;;;;;;48.08;16.42;;;13.90;58.60;;;;;;6122812;28;20094;-67
2022/03/19 05:03:07;;;;;;;51.05;17.73;;;13.90;58.60;;;;;;6124579;28;20386;-67
2022/03/19 05:06:08;;;;;;;45.10;17.35;;;13.90;58.70;;;;;;6124294;28;20484;-67
2022/03/19 05:12:42;;;;;;;50.45;19.15;;;14.00;58.70;;;;;;6118823;28;20043;-67
2022/03/19 05:15:44;;;;;;;52.67;20.50;;;14.00;58.70;;;;;;6118843;28;20032;-67
2022/03/19 05:18:45;;;;;;;51.15;20.27;;;14.00;58.50;;;;;;6122946;28;20036;-67
2022/03/19 05:21:47;;;;;;;52.17;22.00;;;14.10;58.50;;;;;;6123754;28;20532;-67
2022/03/19 05:24:48;;;;;;;55.05;21.55;;;14.10;58.50;;;;;;6124316;28;20040;-67
2022/03/19 05:27:49;;;;;;;65.90;23.60;;;14.10;58.40;;;;;;6122221;28;20039;-67
2022/03/19 05:30:51;;;;;;;64.97;24.23;;;14.10;58.30;;;;;;6123327;28;20335;-67
2022/03/19 05:37:13;;;;;;;61.65;22.58;;;14.20;58.30;;;;;;6123537;28;20047;-68
2022/03/19 05:40:15;;;;;;;58.45;23.05;;;14.20;58.20;;;;;;6125969;28;20099;-67
2022/03/19 05:43:15;;;;;;;59.85;22.58;;;14.20;58.20;;;;;;6125136;28;20126;-66
2022/03/19 05:46:16;;;;;;;63.38;22.15;;;14.20;58.20;;;;;;6121815;28;20466;-66
2022/03/19 05:49:17;;;;;;;59.17;24.05;;;14.30;58.30;;;;;;6127162;28;20051;-66
2022/03/19 05:52:20;;;;;;;72.95;23.33;;;14.30;58.20;;;;;;6111348;28;20048;-67
2022/03/19 05:55:20;;;;;;;57.83;23.52;;;14.30;58.20;;;;;;6122541;28;20055;-67
2022/03/19 05:58:23;;;;;;;57.70;22.77;;;14.30;58.10;;;;;;6116906;28;20470;-67
2022/03/19 06:01:26;;;;;;;66.55;24.45;;;14.30;58.00;;;;;;6131695;28;20039;-67
2022/03/19 06:04:27;;;;;;;61.90;23.58;;;14.30;57.90;;;;;;6115369;29;20048;-66
2022/03/19 06:07:28;;;;;;;60.72;22.98;;;14.30;57.70;;;;;;6118739;28;20497;-67
2022/03/19 06:10:28;;;;;;;61.50;22.90;;;14.30;57.60;;;;;;6123009;28;20123;-67
2022/03/19 06:13:29;;;;;;;54.25;21.98;;;14.20;57.50;;;;;;6122972;28;20047;-67
2022/03/19 06:16:30;;;;;;;56.03;22.33;;;14.20;57.40;;;;;;6123451;28;20035;-67
2022/03/19 06:19:31;;;;;;;56.72;23.05;;;14.20;57.40;;;;;;6122910;28;20130;-67
2022/03/19 06:22:34;;;;;;;52.60;23.10;;;14.30;57.50;;;;;;6123701;28;20032;-66
2022/03/19 06:25:35;;;;;;;57.35;23.42;;;14.30;57.30;;;;;;6106797;28;20047;-67
2022/03/19 06:28:35;;;;;;;50.90;21.60;;;14.30;57.20;;;;;;6124123;28;20043;-66
2022/03/19 06:31:36;;;;;;;51.08;22.23;;;14.30;57.10;;;;;;6123250;28;20046;-67
2022/03/19 06:34:37;;;;;;;48.53;21.42;;;14.30;56.90;;;;;;6123536;28;20051;-67
2022/03/19 06:37:39;;;;;;;55.00;20.45;;;14.30;57.10;;;;;;6122658;28;20039;-67
2022/03/19 06:40:41;;;;;;;54.30;21.48;;;14.30;56.70;;;;;;6106579;28;20061;-66
2022/03/19 06:43:43;;;;;;;57.28;21.48;;;14.30;56.50;;;;;;6122830;28;20047;-66
2022/03/19 06:46:44;;;;;;;59.20;23.10;;;14.30;56.50;;;;;;6122539;28;20038;-66
2022/03/19 06:49:45;;;;;;;54.20;20.60;;;14.30;56.50;;;;;;6124996;28;20361;-66
2022/03/19 06:52:45;;;;;;;48.42;21.55;;;14.30;56.20;;;;;;6125311;28;20141;-67
2022/03/19 06:55:47;;;;;;;56.95;21.92;;;14.20;56.10;;;;;;6125645;28;20032;-67
2022/03/19 06:58:47;;;;;;;55.67;22.35;;;14.20;55.90;;;;;;6127640;28;20040;-67
2022/03/19 07:01:48;;;;;;;51.70;20.58;;;14.30;55.70;;;;;;6122154;28;20085;-67
2022/03/19 07:04:50;;;;;;;50.25;20.85;;;14.20;56.10;;;;;;6131884;28;20063;-67
2022/03/19 07:07:53;;;;;;;53.20;20.98;;;14.20;55.40;;;;;;6126573;28;20074;-67
2022/03/19 07:10:54;;;;;;;58.30;19.98;;;14.20;55.20;;;;;;6127151;28;20032;-68
2022/03/19 07:13:57;;;;;;;49.47;20.02;;;14.20;55.00;;;;;;6108674;28;20156;-67
2022/03/19 07:16:58;;;;;;;54.05;21.05;;;14.30;54.70;;;;;;6127380;28;20350;-67
2022/03/19 07:19:59;;;;;;;45.35;19.63;;;14.20;54.40;;;;;;6122982;28;20046;-68
2022/03/19 07:23:05;;;;;;;53.22;20.08;;;14.20;54.40;;;;;;6111946;28;20044;-68
2022/03/19 07:26:06;;;;;;;47.00;18.98;;;14.20;54.30;;;;;;6121263;28;20049;-68
2022/03/19 07:29:07;;;;;;;50.30;20.50;;;14.30;54.30;;;;;;6127829;28;20069;-67
2022/03/19 07:32:10;;;;;;;44.80;19.27;;;14.30;54.10;;;;;;6126285;28;20036;-68
2022/03/19 07:35:15;;;;;;;48.95;20.10;;;14.40;53.90;;;;;;6126555;28;20047;-67
2022/03/19 07:38:16;;;;;;;45.85;18.48;;;14.50;53.50;;;;;;6124467;28;20123;-67
2022/03/19 07:44:36;;;;;;;50.67;18.55;;;14.50;53.60;;;;;;6121240;28;20362;-67
2022/03/19 07:47:37;;;;;;;53.10;20.10;;;14.60;52.80;;;;;;6121671;28;20111;-68
2022/03/19 07:50:38;;;;;;;50.67;18.92;;;14.60;52.40;;;;;;6123237;28;20050;-67
2022/03/19 07:53:39;;;;;;;45.60;19.13;;;14.70;52.20;;;;;;6124673;28;20039;-67
2022/03/19 07:56:40;;;;;;;42.30;18.92;;;14.70;51.80;;;;;;6124190;28;20035;-67
2022/03/19 07:59:41;;;;;;;48.13;17.92;;;14.70;52.00;;;;;;6123834;28;20043;-68
2022/03/19 08:02:43;;;;;;;45.05;17.73;;;14.70;51.20;;;;;;6125456;28;20056;-68
2022/03/19 08:05:44;;;;;;;47.03;19.45;;;14.70;51.10;;;;;;6120958;28;20047;-68
2022/03/19 08:08:45;;;;;;;43.83;19.60;;;14.70;51.00;;;;;;6108529;28;20040;-68
2022/03/19 08:11:47;;;;;;;40.60;18.30;;;14.80;50.80;;;;;;6123581;28;20465;-67
2022/03/19 08:14:49;;;;;;;48.13;19.92;;;14.80;50.70;;;;;;6126123;28;20173;-67
2022/03/19 08:17:50;;;;;;;41.83;18.38;;;14.90;50.90;;;;;;6125439;28;20046;-67
2022/03/19 08:20:51;;;;;;;41.15;18.45;;;15.00;50.80;;;;;;6122367;28;20127;-67
2022/03/19 08:23:52;;;;;;;45.00;18.50;;;15.10;50.40;;;;;;6119914;28;20070;-67
2022/03/19 08:26:53;;;;;;;46.40;18.25;;;15.20;50.10;;;;;;6119898;28;20059;-71
2022/03/19 08:29:55;;;;;;;51.70;17.95;;;15.30;49.80;;;;;;6108050;28;20081;-67
2022/03/19 08:32:56;;;;;;;46.25;19.27;;;15.50;49.60;;;;;;6124045;28;20406;-68
2022/03/19 08:35:57;;;;;;;46.53;17.40;;;15.60;49.30;;;;;;6122321;28;20049;-67
2022/03/19 08:42:17;;;;;;;35.00;17.48;;;15.70;48.30;;;;;;6120944;28;20051;-66
2022/03/19 08:45:22;;;;;;;38.38;17.60;;;15.80;48.10;;;;;;6124020;28;20095;-68
2022/03/19 08:48:23;;;;;;;37.30;16.55;;;15.80;48.20;;;;;;6123771;28;20058;-67
2022/03/19 08:51:41;;;;;;;38.20;17.63;;;16.00;48.20;;;;;;6122914;28;20035;-67
2022/03/19 08:54:42;;;;;;;39.20;16.27;;;16.10;47.80;;;;;;6088340;28;20127;-67
2022/03/19 08:57:43;;;;;;;40.50;17.92;;;16.20;47.10;;;;;;6108455;28;20032;-67
2022/03/19 09:00:44;;;;;;;46.00;18.33;;;16.10;46.60;;;;;;6122586;28;20095;-67
2022/03/19 09:03:45;;;;;;;36.47;17.25;;;16.10;46.80;;;;;;6118834;28;20445;-67
2022/03/19 09:06:46;;;;;;;41.97;17.45;;;16.10;46.70;;;;;;6116681;28;20046;-70
2022/03/19 09:09:52;;;;;;;36.05;17.13;;;16.10;46.10;;;;;;6119672;28;20536;-67
2022/03/19 09:12:55;;;;;;;51.53;18.27;;;16.10;46.30;;;;;;6123647;28;20056;-68
2022/03/19 09:15:55;;;;;;;37.05;15.93;;;16.10;46.40;;;;;;6099067;28;20043;-68
2022/03/19 09:18:57;;;;;;;40.40;18.60;;;16.20;46.20;;;;;;6122611;28;20116;-66
2022/03/19 09:21:59;;;;;;;41.10;18.08;;;16.30;46.30;;;;;;6117091;28;20039;-69
2022/03/19 09:25:00;;;;;;;39.10;18.38;;;16.40;46.30;;;;;;6120539;28;20122;-68
2022/03/19 09:28:01;;;;;;;43.70;17.90;;;16.40;46.30;;;;;;6100686;28;20032;-67
2022/03/19 09:31:02;;;;;;;61.60;20.33;;;16.60;46.40;;;;;;6121712;28;20482;-66
2022/03/19 09:34:03;;;;;;;40.72;17.45;;;16.70;46.20;;;;;;6123250;28;20036;-67
2022/03/19 09:37:04;;;;;;;49.40;17.63;;;16.70;46.10;;;;;;6120451;28;20457;-66
2022/03/19 09:40:06;;;;;;;41.15;18.95;;;16.80;46.20;;;;;;6121747;28;20046;-65
2022/03/19 09:43:06;;;;;;;38.33;17.63;;;16.60;46.50;;;;;;6124269;28;20047;-66
2022/03/19 09:46:07;;;;;;;35.95;17.50;;;16.30;46.90;;;;;;6121308;28;20035;-65
2022/03/19 09:49:09;;;;;;;40.15;17.25;;;16.10;47.30;;;;;;6119453;28;20043;-66
2022/03/19 09:52:12;;;;;;;38.47;15.95;;;16.00;47.70;;;;;;6131593;28;20119;-65
2022/03/19 09:55:17;;;;;;;50.22;21.50;;;16.00;47.90;;;;;;6125374;28;20477;-65
2022/03/19 09:58:18;;;;;;;54.45;23.67;;;16.00;47.90;;;;;;6125431;28;20068;-65
2022/03/19 10:01:19;;;;;;;49.63;21.30;;;16.10;47.90;;;;;;6123471;28;20130;-65
2022/03/19 10:04:20;;;;;;;52.97;20.85;;;16.20;48.10;;;;;;6124686;28;20047;-66
2022/03/19 10:10:44;;;;;;;50.25;18.25;;;16.40;48.30;;;;;;6123642;28;20048;-66
2022/03/19 10:13:47;;;;;;;75.97;31.90;;;16.60;48.20;;;;;;6124271;28;20465;-66
2022/03/19 10:16:52;;;;;;;37.20;16.80;;;16.70;48.20;;;;;;6122289;28;20031;-66
2022/03/19 10:19:54;;;;;;;48.55;17.25;;;16.80;47.80;;;;;;6119181;28;20230;-66
2022/03/19 10:22:57;;;;;;;43.00;16.50;;;16.80;47.60;;;;;;6123760;28;20051;-66
2022/03/19 10:25:58;;;;;;;40.78;17.35;;;16.80;47.50;;;;;;6129480;28;20054;-67
2022/03/19 10:29:05;;;;;;;47.40;16.98;;;16.90;47.80;;;;;;6129555;28;20036;-67
2022/03/19 10:32:10;;;;;;;57.10;20.60;;;17.00;47.90;;;;;;6125703;28;20435;-68
2022/03/19 10:35:32;;;;;;;45.53;17.58;;;17.20;47.90;;;;;;6127629;28;20267;-66
2022/03/19 10:38:46;;;;;;;48.88;17.67;;;17.30;47.20;;;;;;6121837;28;20039;-66
2022/03/19 10:41:48;;;;;;;60.80;22.33;;;17.50;46.90;;;;;;6125581;28;20044;-66
2022/03/19 10:44:49;;;;;;;61.45;23.80;;;17.70;46.50;;;;;;6127645;28;20047;-67
2022/03/19 10:47:50;;;;;;;48.78;17.80;;;18.00;46.20;;;;;;6127534;28;20059;-66
2022/03/19 10:50:52;;;;;;;41.55;17.60;;;18.30;46.40;;;;;;6126940;28;20040;-66
2022/03/19 10:53:53;;;;;;;49.15;18.38;;;18.50;45.50;;;;;;6127207;28;20043;-66
2022/03/19 10:56:54;;;;;;;40.72;16.60;;;18.80;45.20;;;;;;6127254;28;20086;-67
2022/03/19 10:59:55;;;;;;;50.15;18.92;;;18.90;44.40;;;;;;6128750;28;20039;-65
2022/03/19 11:03:00;;;;;;;47.78;17.95;;;19.10;44.30;;;;;;6125980;28;20031;-67
2022/03/19 11:06:09;;;;;;;51.78;18.65;;;19.30;44.30;;;;;;6127914;28;20047;-68
2022/03/19 11:09:13;;;;;;;42.42;18.15;;;19.70;44.30;;;;;;6121256;28;20051;-66
2022/03/19 11:12:19;;;;;;;39.42;17.42;;;20.00;43.80;;;;;;6110368;28;20040;-67
2022/03/19 11:15:20;;;;;;;49.53;17.23;;;20.20;43.40;;;;;;6126768;28;20390;-67
2022/03/19 11:18:22;;;;;;;37.58;16.45;;;20.40;42.70;;;;;;6126159;28;20043;-66
2022/03/19 11:21:26;;;;;;;43.83;17.67;;;20.50;41.70;;;;;;6128117;28;20047;-67
2022/03/19 11:24:30;;;;;;;37.28;16.40;;;20.70;41.90;;;;;;6118867;28;20043;-68
2022/03/19 11:27:34;;;;;;;41.55;16.08;;;20.80;41.70;;;;;;6119599;28;20039;-66
2022/03/19 11:30:37;;;;;;;46.15;20.25;;;21.00;41.20;;;;;;6122306;28;20127;-69
2022/03/19 11:33:38;;;;;;;41.55;19.13;;;21.10;40.00;;;;;;6122932;28;20119;-67
2022/03/19 11:36:56;;;;;;;40.00;16.90;;;21.20;39.80;;;;;;6111980;29;20145;-69
2022/03/19 11:40:12;;;;;;;44.43;17.60;;;21.40;39.30;;;;;;6124033;28;20119;-67
2022/03/19 11:43:25;;;;;;;37.03;16.52;;;21.70;38.70;;;;;;6126204;28;20079;-68
2022/03/19 11:46:26;;;;;;;38.53;16.63;;;21.90;38.00;;;;;;6124522;28;20441;-67
2022/03/19 11:49:55;;;;;;;40.40;16.08;;;22.10;38.30;;;;;;6125745;28;20043;-69
2022/03/19 11:52:55;;;;;;;43.45;15.40;;;22.40;38.50;;;;;;6102462;29;20040;-67
2022/03/19 11:56:03;;;;;;;39.63;16.00;;;22.80;38.40;;;;;;6113370;28;20354;-68
2022/03/19 11:59:06;;;;;;;58.67;20.77;;;23.20;37.70;;;;;;6120637;28;20310;-68
2022/03/19 12:02:10;;;;;;;45.03;18.40;;;23.60;37.00;;;;;;6122366;28;20094;-68
2022/03/19 12:05:18;;;;;;;38.55;15.65;;;23.90;35.80;;;;;;6122749;28;20161;-67
2022/03/19 12:08:23;;;;;;;34.45;16.60;;;24.20;34.90;;;;;;6127109;28;20102;-68
2022/03/19 12:11:25;;;;;;;41.22;16.40;;;24.50;34.00;;;;;;6125084;28;20035;-67
2022/03/19 12:14:26;;;;;;;43.05;15.95;;;24.70;33.70;;;;;;6125336;28;20043;-68
2022/03/19 12:17:27;;;;;;;34.13;14.93;;;25.10;33.50;;;;;;6119110;28;20051;-68
2022/03/19 12:20:28;;;;;;;36.42;15.02;;;25.50;33.80;;;;;;6123614;28;20040;-68
2022/03/19 12:23:44;;;;;;;35.58;15.57;;;25.90;31.80;;;;;;6125413;28;20035;-69
2022/03/19 12:26:49;;;;;;;39.28;14.95;;;26.10;31.20;;;;;;6121160;28;20039;-67
2022/03/19 12:29:50;;;;;;;36.08;14.77;;;26.40;31.60;;;;;;6124752;28;20032;-67
2022/03/19 12:32:57;;;;;;;37.97;13.23;;;26.70;31.50;;;;;;6122643;28;20031;-67
2022/03/19 12:36:09;;;;;;;39.38;13.50;;;27.00;31.10;;;;;;6113682;28;20423;-68
2022/03/19 12:39:11;;;;;;;32.47;12.98;;;27.20;30.60;;;;;;6105699;28;20033;-68
2022/03/19 12:42:27;;;;;;;31.20;13.55;;;27.70;29.90;;;;;;6123295;28;20036;-66
2022/03/19 12:45:42;;;;;;;27.35;12.20;;;28.00;29.40;;;;;;6122145;28;20358;-67
2022/03/19 12:48:44;;;;;;;30.45;12.05;;;28.60;28.90;;;;;;6124480;28;20369;-67
2022/03/19 12:51:47;;;;;;;26.50;11.77;;;29.00;28.50;;;;;;6122803;28;20100;-67
2022/03/19 12:54:55;;;;;;;26.83;10.90;;;29.40;27.70;;;;;;6119859;28;20449;-66
2022/03/19 12:58:03;;;;;;;23.58;10.32;;;29.60;27.40;;;;;;6127315;28;20122;-67
2022/03/19 13:01:08;;;;;;;31.40;11.77;;;29.70;27.00;;;;;;6121509;28;20043;-68
2022/03/19 13:04:09;;;;;;;26.63;11.27;;;29.80;27.10;;;;;;6119301;28;20054;-68
2022/03/19 13:07:13;;;;;;;27.52;11.38;;;29.70;27.30;;;;;;6122520;28;20032;-68
2022/03/19 13:10:15;;;;;;;29.52;10.40;;;29.00;27.30;;;;;;6118004;28;20094;-68
2022/03/19 13:13:18;;;;;;;20.60;8.65;;;28.20;28.10;;;;;;6117642;28;20040;-68
2022/03/19 13:16:30;;;;;;;23.20;8.70;;;27.80;28.40;;;;;;6119488;28;20040;-67
2022/03/19 13:19:37;;;;;;;19.02;7.80;;;27.50;28.40;;;;;;6111691;28;20415;-68
2022/03/19 13:22:38;;;;;;;25.23;5.95;;;27.20;29.00;;;;;;6119751;28;20071;-68
2022/03/19 13:25:39;;;;;;;28.58;5.82;;;27.10;28.70;;;;;;6124025;28;20438;-67
2022/03/19 13:29:10;;;;;;;25.42;5.78;;;27.10;28.40;;;;;;6123824;28;20036;-68
2022/03/19 13:32:16;;;;;;;18.27;5.80;;;27.00;28.80;;;;;;6108492;28;20126;-67
2022/03/19 13:35:39;;;;;;;20.30;6.43;;;27.20;28.50;;;;;;6116916;28;20043;-67
2022/03/19 13:38:40;;;;;;;14.60;6.60;;;27.10;28.50;;;;;;6119382;28;20042;-68
2022/03/19 13:41:40;;;;;;;17.38;5.85;;;26.90;28.90;;;;;;6116649;28;20497;-67
2022/03/19 13:44:59;;;;;;;18.05;6.05;;;26.70;29.10;;;;;;6117675;28;20059;-67
2022/03/19 13:48:08;;;;;;;22.05;6.15;;;26.40;29.40;;;;;;6117217;28;20062;-67
2022/03/19 13:51:09;;;;;;;22.90;6.15;;;26.10;29.40;;;;;;6107037;28;20043;-67
2022/03/19 13:54:09;;;;;;;18.63;6.18;;;25.80;29.70;;;;;;6119835;28;20419;-67
2022/03/19 13:57:15;;;;;;;18.23;5.70;;;25.60;29.80;;;;;;6122402;28;20059;-67
2022/03/19 14:00:23;;;;;;;23.70;6.47;;;25.20;29.70;;;;;;6126320;28;20115;-67
2022/03/19 14:03:24;;;;;;;18.42;6.55;;;24.90;30.00;;;;;;6127661;28;20407;-66
2022/03/19 14:06:33;;;;;;;22.83;5.93;;;24.60;30.20;;;;;;6128063;28;20050;-68
2022/03/19 14:09:34;;;;;;;18.77;6.38;;;24.40;30.10;;;;;;6084236;29;20036;-67
2022/03/19 14:12:39;;;;;;;19.33;6.13;;;24.20;30.60;;;;;;6127823;28;20064;-68
2022/03/19 14:15:53;;;;;;;22.85;6.38;;;24.20;31.00;;;;;;6127998;28;20354;-67
2022/03/19 14:18:59;;;;;;;28.75;6.72;;;24.20;30.90;;;;;;6126004;28;20047;-67
2022/03/19 14:22:00;;;;;;;34.05;7.00;;;24.10;30.90;;;;;;6127890;28;20036;-67
2022/03/19 14:25:01;;;;;;;18.95;6.30;;;24.00;31.00;;;;;;6127520;28;20150;-67
2022/03/19 14:28:09;;;;;;;26.30;6.38;;;23.70;31.10;;;;;;6110130;28;20057;-67
2022/03/19 14:31:13;;;;;;;;;;;23.50;31.20;;;;;;6125951;28;20054;-67
2022/03/19 14:34:15;;;;;;;25.42;7.32;;;23.40;31.60;;;;;;6127406;28;20014;-68
2022/03/19 14:37:16;;;;;;;18.83;7.18;;;23.40;31.70;;;;;;6122942;28;20365;-67
2022/03/19 14:40:17;;;;;;;30.98;8.85;;;23.40;31.80;;;;;;6127143;28;20463;-67
2022/03/19 14:43:19;;;;;;;27.15;9.23;;;23.30;32.00;;;;;;6111500;28;20360;-65
2022/03/19 14:46:22;;;;;;;22.65;8.40;;;23.20;32.50;;;;;;6127188;28;20060;-67
2022/03/19 14:49:22;;;;;;;26.67;9.13;;;23.10;32.90;;;;;;6127666;28;20063;-67
2022/03/19 14:52:23;;;;;;;23.77;8.63;;;23.10;33.10;;;;;;6127232;28;20046;-66
2022/03/19 14:55:24;;;;;;;27.10;8.57;;;23.00;33.00;;;;;;6126947;28;20040;-68
2022/03/19 14:58:25;;;;;;;20.48;8.15;;;23.00;32.90;;;;;;6100739;29;20043;-66
2022/03/19 15:01:29;;;;;;;18.17;6.82;;;22.90;33.00;;;;;;6110814;28;20051;-68
2022/03/19 15:04:29;;;;;;;26.42;8.13;;;23.00;33.70;;;;;;6126375;28;20481;-68
2022/03/19 15:07:31;;;;;;;28.88;8.48;;;23.00;33.00;;;;;;6123439;28;20031;-68
2022/03/19 15:10:32;;;;;;;30.02;9.88;;;23.00;33.10;;;;;;6127313;28;20076;-68
2022/03/19 15:13:34;;;;;;;30.02;9.05;;;22.90;33.20;;;;;;6127149;28;20091;-68
2022/03/19 15:16:34;;;;;;;22.75;9.15;;;22.90;33.30;;;;;;6127155;28;20366;-68
2022/03/19 15:19:36;;;;;;;23.05;8.73;;;22.80;33.40;;;;;;6126469;28;20075;-68
2022/03/19 15:22:38;;;;;;;32.95;9.13;;;22.80;33.40;;;;;;6126754;28;20133;-68
2022/03/19 15:25:40;;;;;;;26.05;9.43;;;22.60;33.30;;;;;;6126881;28;20118;-68
2022/03/19 15:28:41;;;;;;;34.95;9.93;;;22.50;33.70;;;;;;6126310;28;20376;-67
2022/03/19 15:31:42;;;;;;;27.77;9.35;;;22.40;33.90;;;;;;6127562;28;20045;-67
2022/03/19 15:34:43;;;;;;;21.10;9.07;;;22.40;34.00;;;;;;6125596;28;20031;-67
2022/03/19 15:37:45;;;;;;;28.48;9.68;;;22.20;34.00;;;;;;6105826;28;20449;-67
2022/03/19 15:40:47;;;;;;;20.33;8.57;;;22.20;34.10;;;;;;6124777;28;20071;-67
2022/03/19 15:43:49;;;;;;;21.50;9.65;;;22.20;34.20;;;;;;6126012;28;20042;-68
2022/03/19 15:46:49;;;;;;;29.20;10.73;;;22.20;34.10;;;;;;6125629;28;20120;-67
2022/03/19 15:49:51;;;;;;;20.85;9.52;;;22.20;34.00;;;;;;6125960;28;20042;-67
2022/03/19 15:52:53;;;;;;;24.00;10.38;;;22.10;34.10;;;;;;6126985;28;20036;-67